Riga International Airport

EVRA · Babīte, Latvia

METAR history EVRA · Riga International Airport

Below you see METARs of the last few days. Select a year to browse through older METARs, from the year 2007 onwards.

April 17, 2024

Time Code Weather Temp. Visibility Ceiling Wind METAR/SPECI
07:20
L
3 °C 10 km+ 400 ft 330° 330° 5 kt METAR EVRA 170420Z 33005KT 9999 BKN004 03/02 Q0999 NOSIG
06:50
L
2 °C 10 km+ 400 ft 320° 320° 3 kt METAR EVRA 170350Z 32003KT 270V360 9999 BKN004 02/02 Q0999 NOSIG
06:20
L
1 °C 10 km+ 400 ft 290° 290° 3 kt METAR EVRA 170320Z 29003KT 9999 BKN004 01/01 Q0998 NOSIG
05:50
V
1 °C 10 km+ - Var Var 2 kt METAR EVRA 170250Z VRB02KT 9999 SCT005 01/01 Q0998 NOSIG
05:20
V
2 °C 10 km+ - 330° 330° 4 kt METAR EVRA 170220Z 33004KT CAVOK 02/01 Q0998 NOSIG
04:50
V
2 °C 10 km+ - 330° 330° 4 kt METAR EVRA 170150Z 33004KT CAVOK 02/01 Q0998 NOSIG
04:20
V
2 °C 10 km+ - 320° 320° 4 kt METAR EVRA 170120Z 32004KT 280V350 CAVOK 02/01 Q0998 NOSIG
03:50
V
2 °C 10 km+ - 320° 320° 4 kt METAR EVRA 170050Z 32004KT 290V350 CAVOK 02/01 Q0997 NOSIG
03:20
V
2 °C 10 km+ - 320° 320° 5 kt METAR EVRA 170020Z 32005KT 280V010 CAVOK 02/01 Q0997 NOSIG
02:50
V
2 °C 10 km+ - 330° 330° 4 kt METAR EVRA 162350Z 33004KT CAVOK 02/01 Q0997 NOSIG
02:20
V
2 °C 10 km+ - 330° 330° 4 kt METAR EVRA 162320Z 33004KT CAVOK 02/01 Q0997 NOSIG
01:50
V
2 °C 10 km+ - 310° 310° 5 kt METAR EVRA 162250Z 31005KT 270V350 CAVOK 02/01 Q0997 NOSIG
01:20
V
2 °C 10 km+ - 330° 330° 5 kt METAR EVRA 162220Z 33005KT 300V360 CAVOK 02/01 Q0997 NOSIG
00:50
V
2 °C 10 km+ - 320° 320° 4 kt METAR EVRA 162150Z 32004KT 290V350 CAVOK 02/01 Q0997 NOSIG
00:20
V
2 °C 10 km+ - 330° 330° 4 kt METAR EVRA 162120Z 33004KT CAVOK 02/00 Q0997 NOSIG

April 16, 2024

Time Code Weather Temp. Visibility Ceiling Wind METAR/SPECI
23:50
V
2 °C 10 km+ - 330° 330° 5 kt METAR EVRA 162050Z 33005KT 300V360 CAVOK 02/01 Q0996 NOSIG
23:20
V
2 °C 10 km+ - 330° 330° 4 kt METAR EVRA 162020Z 33004KT 290V350 CAVOK 02/01 Q0996 NOSIG
22:50
V
2 °C 10 km+ - 310° 310° 4 kt METAR EVRA 161950Z 31004KT 270V360 CAVOK 02/01 Q0996 NOSIG
22:20
V
3 °C 10 km+ - 330° 330° 4 kt METAR EVRA 161920Z 33004KT CAVOK 03/01 Q0997 NOSIG
21:50
V
3 °C 10 km+ - 340° 340° 5 kt METAR EVRA 161850Z 34005KT CAVOK 03/01 Q0997 NOSIG
21:20
V
4 °C 10 km+ - 330° 330° 5 kt METAR EVRA 161820Z 33005KT CAVOK 04/01 Q0997 NOSIG
20:50
V
5 °C 10 km+ - 340° 340° 4 kt METAR EVRA 161750Z 34004KT 320V030 CAVOK 05/01 Q0996 NOSIG
20:20
V
6 °C 10 km+ - 010° 010° 9 kt METAR EVRA 161720Z 01009KT CAVOK 06/00 Q0996 NOSIG
19:50
V
6 °C 10 km+ - 010° 010° 9 kt METAR EVRA 161650Z 01009KT CAVOK 06/M01 Q0996 NOSIG
19:20
V
7 °C 10 km+ - 360° 360° 9 kt METAR EVRA 161620Z 36009KT CAVOK 07/M00 Q0996 NOSIG
18:50
V
7 °C 10 km+ - 010° 010° 10 kt METAR EVRA 161550Z 01010KT CAVOK 07/00 Q0996 NOSIG
18:20
V
6 °C 10 km+ - 010° 010° 11 kt METAR EVRA 161520Z 01011KT CAVOK 06/00 Q0996 NOSIG
17:50
V
7 °C 10 km+ - 360° 360° 9 kt METAR EVRA 161450Z 36009KT CAVOK 07/M00 Q0996 NOSIG
17:20
V
9 °C 10 km+ - 010° 010° 13 kt METAR EVRA 161420Z 01013KT CAVOK 09/M00 Q0996 NOSIG
16:50
V
8 °C 10 km+ - 350° 350° 11 kt METAR EVRA 161350Z 35011KT CAVOK 08/M01 Q0996 NOSIG
16:20
V
9 °C 10 km+ - 360° 360° 12 kt METAR EVRA 161320Z 36012KT 9999 FEW049 09/M01 Q0996 NOSIG
15:50
V
10 °C 10 km+ - 360° 360° 11 kt METAR EVRA 161250Z 36011KT 9999 FEW049 10/M00 Q0996 NOSIG
15:20
V
10 °C 10 km+ - 080° 080° 4 kt METAR EVRA 161220Z 08004KT 340V150 CAVOK 10/M03 Q0996 NOSIG
14:50
V
10 °C 10 km+ - 060° 060° 6 kt METAR EVRA 161150Z 06006KT 340V120 9999 FEW011 10/M05 Q0996 NOSIG
14:20
V
10 °C 10 km+ - 100° 100° 4 kt METAR EVRA 161120Z 10004KT 030V170 9999 FEW011 10/M02 Q0996 NOSIG
13:50
V
8 °C 10 km+ - 090° 090° 5 kt METAR EVRA 161050Z 09005KT 040V160 9999 FEW022 08/M02 Q0997 NOSIG
13:20
V
8 °C 10 km+ - Var Var 4 kt METAR EVRA 161020Z VRB04KT 9999 FEW022 08/M02 Q0997 NOSIG
12:50
V
8 °C 10 km+ - 140° 140° 5 kt METAR EVRA 160950Z 14005KT 100V180 9999 FEW022 08/M02 Q0997 NOSIG
12:20
V
9 °C 10 km+ - 140° 140° 4 kt METAR EVRA 160920Z 14004KT 060V220 9999 FEW022 09/M01 Q0997 NOSIG
11:50
V
8 °C 10 km+ - 060° 060° 7 kt METAR EVRA 160850Z 06007KT 030V120 9999 FEW022 08/M01 Q0998 NOSIG
11:20
V
7 °C 10 km+ - Var Var 3 kt METAR EVRA 160820Z VRB03KT 9999 FEW022 07/01 Q0998 NOSIG
10:50
V
6 °C 10 km+ - 070° 070° 4 kt METAR EVRA 160750Z 07004KT 040V120 CAVOK 06/01 Q0998 NOSIG
10:20
V
4 °C 10 km+ - 090° 090° 4 kt METAR EVRA 160720Z 09004KT CAVOK 04/01 Q0998 NOSIG
09:50
V
4 °C 10 km+ - 110° 110° 5 kt METAR EVRA 160650Z 11005KT CAVOK 04/02 Q0998 NOSIG
09:20
V
3 °C 10 km+ - 140° 140° 4 kt METAR EVRA 160620Z 14004KT 9999 FEW002 03/02 Q0999 NOSIG
08:50
V
2 °C 10 km+ - 110° 110° 3 kt METAR EVRA 160550Z 11003KT 020V150 9999 FEW001 SCT004 02/01 Q0999 NOSIG
08:20
L
1 °C 10 km+ 400 ft Var Var 2 kt METAR EVRA 160520Z VRB02KT 9999 FEW002 BKN004 01/01 Q0999 BECMG SCT004
07:50
L
0 °C 3.6 km 400 ft Var Var 1 kt METAR EVRA 160450Z VRB01KT 3600 BR FEW001 BKN004 00/00 Q1000 BECMG 6000 NSW SCT004
07:20
L
0 °C 1 km 200 ft 360° 360° 0 kt METAR EVRA 160420Z 00000KT 1600 1000 R18/P2000N PRFG BR BKN002 M00/M01 Q1000 BECMG 6000 NSW
06:50
L
-1 °C 800 m 200 ft Var Var 1 kt METAR EVRA 160350Z VRB01KT 1000 0800 R18/P2000N PRFG BR OVC002 M01/M02 Q1000 TEMPO 0700 FZFG OVC001
06:20
L
-2 °C 10 km+ 100 ft Var Var 1 kt METAR EVRA 160320Z VRB01KT 9999 BCFG BKN001 BKN004 M02/M02 Q1000 NOSIG
05:50
V
-2 °C 10 km+ - 360° 360° 0 kt METAR EVRA 160250Z 00000KT CAVOK M02/M02 Q1000 NOSIG
05:20
V
-2 °C 10 km+ - 360° 360° 0 kt METAR EVRA 160220Z 00000KT CAVOK M02/M02 Q1000 NOSIG
04:50
V
-2 °C 10 km+ - 360° 360° 0 kt METAR EVRA 160150Z 00000KT 9999 MIFG NSC M02/M02 Q1000 NOSIG
04:20
V
-2 °C 10 km+ - 190° 190° 2 kt METAR EVRA 160120Z 19002KT 9999 MIFG NSC M02/M02 Q1001 NOSIG
03:50
V
-2 °C 10 km+ - Var Var 1 kt METAR EVRA 160050Z VRB01KT 9999 MIFG NSC M02/M02 Q1000 NOSIG
03:20
V
-3 °C 10 km+ - 360° 360° 0 kt METAR EVRA 160020Z 00000KT 9999 MIFG NSC M03/M03 Q1001 NOSIG
02:50
I
-2 °C 1.7 km - 360° 360° 0 kt METAR EVRA 152350Z 00000KT 9999 1700 MIFG NSC M02/M02 Q1001 NOSIG
02:20
V
-3 °C 10 km+ - 220° 220° 2 kt METAR EVRA 152320Z 22002KT 9999 MIFG NSC M03/M03 Q1001 NOSIG
01:50
L
-2 °C 1.1 km - 210° 210° 2 kt METAR EVRA 152250Z 21002KT 9999 1100 R18/P2000N BCFG NSC M02/M02 Q1001 TEMPO 0700 FZFG
01:20
I
-2 °C 2.1 km - 360° 360° 0 kt METAR EVRA 152220Z 00000KT 9999 2100 BCFG NSC M02/M02 Q1001 NOSIG
00:50
I
-1 °C 1.5 km - 200° 200° 1 kt METAR EVRA 152150Z 20001KT 9999 1500 BCFG NSC M01/M02 Q1002 NOSIG
00:20
L
-1 °C 900 m - 360° 360° 0 kt METAR EVRA 152120Z 00000KT 9999 0900 R18/P2000N BCFG NSC M01/M01 Q1002 NOSIG

April 15, 2024

Time Code Weather Temp. Visibility Ceiling Wind METAR/SPECI
23:50
V
0 °C 10 km+ - Var Var 1 kt METAR EVRA 152050Z VRB01KT CAVOK 00/00 Q1002 NOSIG
23:20
V
1 °C 10 km+ - 200° 200° 2 kt METAR EVRA 152020Z 20002KT CAVOK 01/00 Q1002 NOSIG
22:50
V
1 °C 10 km+ - 360° 360° 0 kt METAR EVRA 151950Z 00000KT CAVOK 01/00 Q1002 NOSIG
22:20
V
3 °C 10 km+ - 280° 280° 2 kt METAR EVRA 151920Z 28002KT CAVOK 03/01 Q1003 NOSIG
21:50
V
4 °C 10 km+ - Var Var 1 kt METAR EVRA 151850Z VRB01KT 9999 FEW026 04/01 Q1003 NOSIG
21:20
M
5 °C 10 km+ 2,400 ft Var Var 2 kt METAR EVRA 151820Z VRB02KT 9999 BKN024 05/01 Q1003 NOSIG
20:50
M
6 °C 10 km+ 2,400 ft Var Var 2 kt METAR EVRA 151750Z VRB02KT 9999 BKN024 06/02 Q1003 NOSIG
20:20
M
6 °C 10 km+ 2,100 ft 280° 280° 3 kt METAR EVRA 151720Z 28003KT 220V360 9999 BKN021 06/02 Q1003 NOSIG
19:50
M
7 °C 10 km+ 2,200 ft 270° 270° 6 kt METAR EVRA 151650Z 27006KT 220V320 9999 OVC022 07/02 Q1003 NOSIG
19:20
M
7 °C 10 km+ 2,100 ft 240° 240° 6 kt METAR EVRA 151620Z 24006KT 200V280 9999 BKN021 OVC024 07/02 Q1003 NOSIG
18:50
M
7 °C 10 km+ 2,100 ft 250° 250° 6 kt METAR EVRA 151550Z 25006KT 200V320 9999 BKN021 OVC025 07/03 Q1003 NOSIG
18:20
M
7 °C 10 km+ 2,400 ft 310° 310° 6 kt METAR EVRA 151520Z 31006KT 230V350 9999 SCT021 BKN024 OVC030 07/03 Q1003 NOSIG
17:50
M
7 °C 10 km+ 2,500 ft 320° 320° 7 kt METAR EVRA 151450Z 32007KT 270V350 9999 SCT022 OVC025 07/03 Q1003 NOSIG
17:20
M
8 °C 10 km+ 2,800 ft 300° 300° 6 kt METAR EVRA 151420Z 30006KT 260V350 9999 SCT024 BKN028 08/03 Q1003 NOSIG
16:50
M
8 °C 10 km+ 2,500 ft 270° 270° 7 kt METAR EVRA 151350Z 27007KT 200V320 9999 BKN025 BKN031 08/03 Q1003 NOSIG
16:20
M
9 °C 10 km+ 3,000 ft 260° 260° 8 kt METAR EVRA 151320Z 26008KT 210V300 9999 SCT026 BKN030 09/03 Q1003 NOSIG
15:50
M
9 °C 10 km+ 2,700 ft 300° 300° 6 - 17 kt METAR EVRA 151250Z 30006G17KT 230V360 9999 BKN027 09/03 Q1002 NOSIG
15:20
M
9 °C 10 km+ 2,700 ft 300° 300° 8 kt METAR EVRA 151220Z 30008KT 220V350 9999 BKN027 09/03 Q1002 NOSIG
14:50
V
9 °C 10 km+ - 300° 300° 6 kt METAR EVRA 151150Z 30006KT 260V350 9999 SCT026 SCT031 09/03 Q1002 NOSIG
14:20
V
9 °C 10 km+ - 300° 300° 9 kt METAR EVRA 151120Z 30009KT 240V350 9999 SCT024 SCT031 09/03 Q1002 NOSIG
13:50
V
9 °C 10 km+ - 320° 320° 9 kt METAR EVRA 151050Z 32009KT 260V340 9999 SCT020 SCT027 09/03 Q1002 NOSIG
13:20
M
9 °C 10 km+ 2,000 ft 300° 300° 8 kt METAR EVRA 151020Z 30008KT 250V340 9999 BKN020 BKN027 09/03 Q1002 NOSIG
12:50
M
8 °C 10 km+ 1,900 ft 280° 280° 9 kt METAR EVRA 150950Z 28009KT 220V330 9999 BKN019 BKN027 08/03 Q1001 NOSIG
12:20
M
8 °C 10 km+ 1,700 ft 270° 270° 9 kt METAR EVRA 150920Z 27009KT 210V340 9999 BKN017 OVC025 08/03 Q1001 NOSIG
11:50
M
7 °C 10 km+ 1,700 ft 270° 270° 8 kt METAR EVRA 150850Z 27008KT 180V330 9999 BKN017 OVC025 07/03 Q1001 NOSIG
11:20
M
7 °C 10 km+ 1,600 ft Var Var 9 kt METAR EVRA 150820Z VRB09KT 9999 OVC016 07/03 Q1000 NOSIG
10:50
M
7 °C 10 km+ 1,500 ft 270° 270° 9 - 19 kt METAR EVRA 150750Z 27009G19KT 210V320 9999 OVC015 07/03 Q1000 NOSIG
10:20
M
6 °C 10 km+ 1,300 ft 280° 280° 10 - 20 kt METAR EVRA 150720Z 28010G20KT 230V320 9999 OVC013 06/03 Q0999 NOSIG
09:50
M
6 °C 10 km+ 1,300 ft 290° 290° 10 kt METAR EVRA 150650Z 29010KT 240V340 9999 OVC013 06/03 Q0999 NOSIG
09:20
M
6 °C 10 km+ 1,200 ft 270° 270° 10 - 20 kt METAR EVRA 150620Z 27010G20KT 210V310 9999 BKN012 06/03 Q0998 NOSIG
08:50
M
6 °C 10 km+ 1,100 ft 270° 270° 10 kt METAR EVRA 150550Z 27010KT 220V320 9999 OVC011 06/03 Q0998 NOSIG
08:20
M
5 °C 10 km+ 1,000 ft 270° 270° 10 - 22 kt METAR EVRA 150520Z 27010G22KT 200V320 9999 -RA OVC010 05/03 Q0998 NOSIG
07:50
M
5 °C 10 km+ 1,200 ft 280° 280° 9 kt METAR EVRA 150450Z 28009KT 210V330 9999 -RA OVC012 05/03 Q0998 NOSIG
07:20
M
5 °C 10 km+ 1,300 ft 270° 270° 11 - 27 kt METAR EVRA 150420Z 27011G27KT 220V330 9999 -RA OVC013 05/03 Q0997 NOSIG
06:50
M
5 °C 10 km+ 1,600 ft 270° 270° 8 kt METAR EVRA 150350Z 27008KT 220V330 9999 OVC016 05/02 Q0997 NOSIG
06:20
M
6 °C 10 km+ 1,700 ft 270° 270° 11 - 25 kt METAR EVRA 150320Z 27011G25KT 210V300 9999 OVC017 06/02 Q0997 NOSIG
05:50
M
6 °C 10 km+ 1,900 ft 260° 260° 9 - 23 kt METAR EVRA 150250Z 26009G23KT 200V310 9999 OVC019 06/02 Q0996 NOSIG
05:20
M
6 °C 10 km+ 2,200 ft 270° 270° 11 - 22 kt METAR EVRA 150220Z 27011G22KT 220V330 9999 OVC022 06/01 Q0996 NOSIG
04:50
M
6 °C 10 km+ 2,200 ft 260° 260° 13 - 24 kt METAR EVRA 150150Z 26013G24KT 210V290 9999 BKN022 OVC029 06/01 Q0996 NOSIG
04:20
M
6 °C 10 km+ 2,200 ft 270° 270° 12 - 26 kt METAR EVRA 150120Z 27012G26KT 220V340 9999 BKN022 OVC029 06/02 Q0996 NOSIG
03:50
M
6 °C 10 km+ 2,500 ft 270° 270° 14 - 27 kt METAR EVRA 150050Z 27014G27KT 220V320 9999 BKN025 OVC032 06/02 Q0996 NOSIG
03:20
M
7 °C 10 km+ 2,500 ft 270° 270° 14 - 27 kt METAR EVRA 150020Z 27014G27KT 220V310 9999 BKN025 OVC032 07/02 Q0996 NOSIG
02:50
M
7 °C 10 km+ 2,400 ft 250° 250° 13 - 27 kt METAR EVRA 142350Z 25013G27KT 210V300 9999 -RA BKN024 OVC029 07/02 Q0996 NOSIG
02:20
M
7 °C 10 km+ 2,500 ft 250° 250° 13 - 27 kt METAR EVRA 142320Z 25013G27KT 190V310 9999 -RA BKN025 OVC031 07/02 Q0996 NOSIG
01:50
M
7 °C 10 km+ 2,700 ft 250° 250° 9 - 24 kt METAR EVRA 142250Z 25009G24KT 200V310 9999 -RA BKN027 OVC033 07/02 Q0996 NOSIG
01:20
M
7 °C 10 km+ 2,900 ft 250° 250° 12 - 26 kt METAR EVRA 142220Z 25012G26KT 210V310 9999 -RA BKN029 OVC036 07/02 Q0996 WS R18 NOSIG
00:50
V
8 °C 10 km+ 3,900 ft 240° 240° 15 - 28 kt METAR EVRA 142150Z 24015G28KT 200V290 9999 BKN039 BKN047 08/01 Q0996 NOSIG
00:20
V
8 °C 10 km+ 4,300 ft 230° 230° 15 - 29 kt METAR EVRA 142120Z 23015G29KT 200V290 9999 BKN043 08/01 Q0996 NOSIG

April 14, 2024

Time Code Weather Temp. Visibility Ceiling Wind METAR/SPECI
23:50
V
8 °C 10 km+ - 220° 220° 14 kt METAR EVRA 142050Z 22014KT CAVOK 08/01 Q0997 NOSIG
23:20
V
8 °C 10 km+ - 230° 230° 13 kt METAR EVRA 142020Z 23013KT 200V270 CAVOK 08/01 Q0998 WS R18 NOSIG
22:50
V
8 °C 10 km+ - 230° 230° 14 - 24 kt METAR EVRA 141950Z 23014G24KT 210V270 9999 -RA FEW041 08/01 Q0998 NOSIG
22:20
V
8 °C 10 km+ - 220° 220° 13 - 24 kt METAR EVRA 141920Z 22013G24KT 180V260 CAVOK 08/01 Q0999 NOSIG
21:50
V
9 °C 10 km+ - 230° 230° 12 - 22 kt METAR EVRA 141850Z 23012G22KT 200V260 CAVOK 09/01 Q0999 NOSIG
21:20
V
9 °C 10 km+ - 230° 230° 12 kt METAR EVRA 141820Z 23012KT 200V260 9999 FEW044 09/01 Q1000 NOSIG
20:50
V
9 °C 10 km+ - 230° 230° 11 kt METAR EVRA 141750Z 23011KT 200V270 9999 SCT046 09/01 Q1000 NOSIG
20:20
V
10 °C 10 km+ 4,600 ft 240° 240° 13 - 23 kt METAR EVRA 141720Z 24013G23KT 210V270 9999 BKN046 10/01 Q1000 NOSIG
19:50
V
10 °C 10 km+ - 240° 240° 14 - 30 kt METAR EVRA 141650Z 24014G30KT 210V290 9999 SCT047 10/00 Q1000 NOSIG
19:20
V
10 °C 10 km+ - 240° 240° 13 - 31 kt METAR EVRA 141620Z 24013G31KT 190V290 9999 SCT045 10/01 Q1000 NOSIG
18:50
V
10 °C 10 km+ - 240° 240° 15 - 31 kt METAR EVRA 141550Z 24015G31KT 210V290 9999 SCT045 10/01 Q1001 NOSIG
18:20
V
11 °C 10 km+ 4,600 ft 240° 240° 14 - 31 kt METAR EVRA 141520Z 24014G31KT 200V280 9999 BKN046 11/01 Q1001 NOSIG
17:50
V
11 °C 10 km+ 4,700 ft 250° 250° 11 - 22 kt METAR EVRA 141450Z 25011G22KT 200V290 9999 BKN047 11/01 Q1001 NOSIG
17:20
V
11 °C 10 km+ 4,700 ft 250° 250° 12 - 23 kt METAR EVRA 141420Z 25012G23KT 210V300 9999 BKN047 11/01 Q1000 NOSIG
16:50
V
11 °C 10 km+ - 260° 260° 11 - 24 kt METAR EVRA 141350Z 26011G24KT 180V310 9999 SCT049 11/01 Q1001 NOSIG
16:20
V
11 °C 10 km+ - 260° 260° 10 - 21 kt METAR EVRA 141320Z 26010G21KT 190V310 CAVOK 11/01 Q1000 NOSIG
15:50
V
12 °C 10 km+ 4,700 ft 260° 260° 10 - 20 kt METAR EVRA 141250Z 26010G20KT 210V330 9999 BKN047 12/02 Q1000 NOSIG
15:20
V
12 °C 10 km+ - 270° 270° 13 - 30 kt METAR EVRA 141220Z 27013G30KT 210V320 9999 FEW038 SCT043 12/02 Q1000 NOSIG
14:50
V
11 °C 10 km+ 3,100 ft 270° 270° 10 kt METAR EVRA 141150Z 27010KT 210V310 9999 FEW027CB BKN031 11/03 Q1000 NOSIG
14:20
V
12 °C 10 km+ 3,100 ft 280° 280° 13 - 23 kt METAR EVRA 141120Z 28013G23KT 220V330 9999 FEW027CB BKN031 12/05 Q1000 NOSIG
13:50
M
12 °C 10 km+ 2,000 ft 250° 250° 8 kt METAR EVRA 141050Z 25008KT 200V320 9999 FEW017CB BKN020 BKN029 12/07 Q0999 NOSIG
13:20
M
11 °C 10 km+ 1,800 ft 260° 260° 9 - 22 kt METAR EVRA 141020Z 26009G22KT 220V330 9999 FEW013CB SCT015 BKN018 11/08 Q0999 NOSIG
12:50
M
11 °C 10 km+ 1,300 ft 260° 260° 11 kt METAR EVRA 140950Z 26011KT 210V310 9999 SCT010CB BKN013 OVC018 11/08 Q0999 NOSIG
12:20
M
12 °C 10 km+ 1,300 ft 220° 220° 10 - 22 kt METAR EVRA 140920Z 22010G22KT 180V280 9999 SCT010 BKN013 OVC018 12/10 Q0998 NOSIG
11:50
M
11 °C 10 km+ 1,000 ft 200° 200° 10 kt METAR EVRA 140850Z 20010KT 9999 SCT008 BKN010 OVC013 11/10 Q0998 NOSIG
11:20
M
11 °C 10 km+ 1,100 ft 190° 190° 13 kt METAR EVRA 140820Z 19013KT 9999 -RA FEW007 SCT009 OVC011 11/10 Q0999 NOSIG
10:50
I
10 °C 6 km 700 ft 180° 180° 11 kt METAR EVRA 140750Z 18011KT 6000 -RA BKN007 OVC010 10/09 Q0999 RERA TEMPO 4000
10:20
I
10 °C 7 km 700 ft 190° 190° 9 kt METAR EVRA 140720Z 19009KT 7000 -RA BKN007 OVC010 10/09 Q1000 NOSIG
09:50
I
10 °C 10 km+ 800 ft 180° 180° 11 kt METAR EVRA 140650Z 18011KT 9999 -RA OVC008 10/09 Q1001 NOSIG
09:20
I
10 °C 10 km+ 700 ft 190° 190° 10 kt METAR EVRA 140620Z 19010KT 9999 -RA OVC007 10/09 Q1002 NOSIG
08:50
I
9 °C 10 km+ 700 ft 200° 200° 9 kt METAR EVRA 140550Z 20009KT 9999 OVC007 09/08 Q1003 NOSIG
Report a change